createdAt,value
2023-05-12T00:01:55.549Z,4.97
2023-05-12T00:04:24.983Z,5.05
2023-05-12T00:06:53.938Z,4.85
2023-05-12T00:09:23.086Z,4.95
2023-05-12T00:11:52.571Z,4.90
2023-05-12T00:14:23.502Z,4.78
2023-05-12T00:16:53.075Z,5.13
2023-05-12T00:19:22.476Z,4.70
2023-05-12T00:21:51.434Z,5.18
2023-05-12T00:24:20.726Z,4.22
2023-05-12T00:26:49.832Z,4.63
2023-05-12T00:29:19.478Z,4.90
2023-05-12T00:31:49.923Z,5.70
2023-05-12T00:34:20.258Z,5.50
2023-05-12T00:36:50.042Z,5.25
2023-05-12T00:39:19.428Z,4.95
2023-05-12T00:41:50.581Z,5.10
2023-05-12T00:44:19.700Z,5.07
2023-05-12T00:46:51.960Z,5.65
2023-05-12T00:49:22.112Z,4.88
2023-05-12T00:51:51.244Z,5.35
2023-05-12T00:54:20.660Z,5.38
2023-05-12T00:56:50.261Z,5.55
2023-05-12T00:59:22.262Z,5.95
2023-05-12T01:01:52.752Z,5.07
2023-05-12T01:04:22.068Z,5.70
2023-05-12T01:06:56.909Z,5.72
2023-05-12T01:09:26.254Z,5.32
2023-05-12T01:11:55.370Z,5.55
2023-05-12T01:14:24.595Z,5.78
2023-05-12T01:17:00.172Z,5.30
2023-05-12T01:19:42.629Z,5.40
2023-05-12T01:22:13.663Z,5.20
2023-05-12T01:24:49.375Z,5.82
2023-05-12T01:27:22.352Z,5.35
2023-05-12T01:29:52.462Z,5.05
2023-05-12T01:32:23.025Z,5.63
2023-05-12T01:34:52.136Z,5.38
2023-05-12T01:37:22.300Z,5.60
2023-05-12T01:39:51.856Z,5.22
2023-05-12T01:42:24.601Z,4.70
2023-05-12T01:44:53.976Z,4.88
2023-05-12T01:47:23.184Z,5.30
2023-05-12T01:49:59.146Z,5.38
2023-05-12T01:52:28.943Z,5.60
2023-05-12T01:54:57.922Z,5.22
2023-05-12T01:57:30.329Z,4.55
2023-05-12T02:00:01.589Z,5.40
2023-05-12T02:02:34.098Z,5.45
2023-05-12T02:05:03.669Z,5.40
2023-05-12T02:07:32.860Z,5.13
2023-05-12T02:10:02.042Z,5.10
2023-05-12T02:12:34.685Z,4.75
2023-05-12T02:15:04.316Z,5.03
2023-05-12T02:17:35.356Z,4.88
2023-05-12T02:20:09.558Z,5.60
2023-05-12T02:22:38.653Z,5.20
2023-05-12T02:25:08.712Z,4.88
2023-05-12T02:27:39.876Z,4.43
2023-05-12T02:30:10.100Z,5.13
2023-05-12T02:32:39.141Z,5.10
2023-05-12T02:35:13.131Z,5.40
2023-05-12T02:37:42.757Z,5.55
2023-05-12T02:40:12.726Z,4.90
2023-05-12T02:42:45.603Z,5.18
2023-05-12T02:45:14.808Z,5.13
2023-05-12T02:47:44.048Z,5.43
2023-05-12T02:50:13.337Z,5.18
2023-05-12T02:52:42.848Z,4.93
2023-05-12T02:55:15.297Z,5.72
2023-05-12T02:57:45.682Z,5.05
2023-05-12T03:00:15.796Z,5.00
2023-05-12T03:02:44.961Z,5.43
2023-05-12T03:05:14.151Z,5.25
2023-05-12T03:07:43.400Z,5.43
2023-05-12T03:10:12.580Z,5.93
2023-05-12T03:12:42.308Z,5.05
2023-05-12T03:15:13.178Z,5.53
2023-05-12T03:17:42.591Z,5.28
2023-05-12T03:20:12.504Z,5.20
2023-05-12T03:22:41.458Z,5.15
2023-05-12T03:25:11.818Z,5.68
2023-05-12T03:27:40.902Z,5.05
2023-05-12T03:30:13.568Z,5.30
2023-05-12T03:32:42.673Z,5.38
2023-05-12T03:35:13.425Z,5.55
2023-05-12T03:37:42.442Z,5.13
2023-05-12T03:40:19.723Z,4.70
2023-05-12T03:42:49.300Z,5.57
2023-05-12T03:45:22.272Z,5.25
2023-05-12T03:47:52.204Z,5.60
2023-05-12T03:50:21.526Z,5.55
2023-05-12T03:52:50.819Z,5.40
2023-05-12T03:55:23.389Z,5.75
2023-05-12T03:57:52.339Z,5.88
2023-05-12T04:00:23.286Z,5.78
2023-05-12T04:02:52.664Z,6.25
2023-05-12T04:05:21.666Z,5.75
2023-05-12T04:07:50.760Z,6.18
2023-05-12T04:10:30.679Z,5.70
2023-05-12T04:13:02.916Z,6.60
2023-05-12T04:15:36.570Z,6.25
2023-05-12T04:18:08.756Z,5.50
2023-05-12T04:20:39.027Z,5.50
2023-05-12T04:23:10.213Z,5.53
2023-05-12T04:25:41.101Z,5.53
2023-05-12T04:28:12.232Z,5.80
2023-05-12T04:30:46.087Z,6.00
2023-05-12T04:33:15.159Z,5.97
2023-05-12T04:35:44.750Z,6.00
2023-05-12T04:38:15.178Z,5.70
2023-05-12T04:40:45.453Z,5.85
2023-05-12T04:45:48.075Z,5.85
2023-05-12T04:48:17.236Z,5.43
2023-05-12T04:50:46.201Z,5.32
2023-05-12T04:53:18.302Z,5.82
2023-05-12T04:55:47.802Z,5.82
2023-05-12T04:58:18.325Z,5.25
2023-05-12T05:00:49.032Z,5.78
2023-05-12T05:03:18.576Z,5.38
2023-05-12T05:05:49.201Z,5.65
2023-05-12T05:08:19.141Z,5.40
2023-05-12T05:10:48.392Z,5.97
2023-05-12T05:13:17.878Z,5.90
2023-05-12T05:15:56.430Z,5.35
2023-05-12T05:18:27.603Z,5.75
2023-05-12T05:20:59.090Z,5.45
2023-05-12T05:23:28.804Z,5.88
2023-05-12T05:25:58.328Z,5.65
2023-05-12T05:28:27.726Z,5.15
2023-05-12T05:30:58.325Z,5.03
2023-05-12T05:33:27.562Z,5.50
2023-05-12T05:35:57.095Z,5.68
2023-05-12T05:38:26.425Z,6.35
2023-05-12T05:40:55.730Z,5.60
2023-05-12T05:43:26.801Z,5.75
2023-05-12T05:46:02.947Z,6.18
2023-05-12T05:48:36.488Z,5.15
2023-05-12T05:53:35.873Z,5.22
2023-05-12T05:56:05.590Z,5.63
2023-05-12T05:58:37.714Z,5.95
2023-05-12T06:01:09.038Z,5.78
2023-05-12T06:03:39.859Z,5.47
2023-05-12T06:06:09.581Z,5.85
2023-05-12T06:08:38.903Z,5.57
2023-05-12T06:11:08.446Z,5.72
2023-05-12T06:13:38.006Z,4.70
2023-05-12T06:16:08.766Z,4.32
2023-05-12T06:18:38.783Z,4.38
2023-05-12T06:21:10.806Z,4.00
2023-05-12T06:23:40.615Z,3.75
2023-05-12T06:26:09.684Z,3.95
2023-05-12T06:28:38.776Z,4.50
2023-05-12T06:31:10.134Z,5.45
2023-05-12T06:33:39.156Z,4.60
2023-05-12T06:36:10.665Z,5.32
2023-05-12T06:38:39.894Z,4.70
2023-05-12T06:41:09.183Z,4.72
2023-05-12T06:43:38.207Z,4.25
2023-05-12T06:46:23.017Z,3.88
2023-05-12T06:48:56.566Z,4.28
2023-05-12T06:51:27.841Z,3.63
2023-05-12T06:53:57.154Z,3.40
2023-05-12T06:56:26.142Z,4.13
2023-05-12T06:59:01.034Z,3.80
2023-05-12T07:01:34.255Z,3.60
2023-05-12T07:06:34.633Z,3.40
2023-05-12T07:09:04.491Z,4.03
2023-05-12T07:11:33.567Z,3.10
2023-05-12T07:14:04.570Z,3.55
2023-05-12T07:16:36.628Z,3.22
2023-05-12T07:21:39.404Z,3.65
2023-05-12T07:24:09.534Z,2.63
2023-05-12T07:26:39.144Z,2.67
2023-05-12T07:29:12.882Z,2.70
2023-05-12T07:31:44.865Z,2.35
2023-05-12T07:34:13.965Z,2.80
2023-05-12T07:36:43.354Z,3.17
2023-05-12T07:39:13.795Z,2.70
2023-05-12T07:41:43.079Z,2.60
2023-05-12T07:44:12.529Z,2.95
2023-05-12T07:46:41.829Z,3.15
2023-05-12T07:49:12.319Z,2.70
2023-05-12T07:51:41.621Z,2.50
2023-05-12T07:54:12.465Z,2.25
2023-05-12T07:56:42.110Z,2.28
2023-05-12T07:59:13.311Z,2.72
2023-05-12T08:01:42.517Z,2.70
2023-05-12T08:04:12.956Z,2.70
2023-05-12T08:06:42.260Z,8.75
2023-05-12T08:09:15.431Z,3.17
2023-05-12T08:11:59.244Z,2.97
2023-05-12T08:17:17.460Z,5.47
2023-05-12T08:19:47.804Z,7.10
2023-05-12T08:22:16.944Z,3.88
2023-05-12T08:24:47.569Z,2.65
2023-05-12T08:27:16.807Z,2.20
2023-05-12T08:29:50.611Z,2.75
2023-05-12T08:32:19.984Z,2.20
2023-05-12T08:34:50.650Z,1.88
2023-05-12T08:37:20.988Z,2.38
2023-05-12T08:39:51.234Z,2.30
2023-05-12T08:42:31.608Z,2.17
2023-05-12T08:45:02.168Z,2.17
2023-05-12T08:47:34.240Z,2.63
2023-05-12T08:50:06.556Z,2.30
2023-05-12T08:52:37.069Z,2.63
2023-05-12T08:55:07.179Z,2.33
2023-05-12T08:57:38.939Z,2.40
2023-05-12T09:00:10.689Z,2.17
2023-05-12T09:02:52.071Z,1.98
2023-05-12T09:05:24.246Z,2.10
2023-05-12T09:07:55.952Z,2.25
2023-05-12T09:10:35.283Z,2.42
2023-05-12T09:13:14.062Z,3.30
2023-05-12T09:15:46.697Z,12.90
2023-05-12T09:18:15.862Z,4.03
2023-05-12T09:20:46.381Z,3.28
2023-05-12T09:23:16.632Z,3.13
2023-05-12T09:25:47.125Z,2.17
2023-05-12T09:28:19.178Z,2.10
2023-05-12T09:30:48.178Z,2.72
2023-05-12T09:33:17.689Z,1.98
2023-05-12T09:35:50.466Z,2.83
2023-05-12T09:38:20.488Z,1.90
2023-05-12T09:40:50.065Z,2.35
2023-05-12T09:43:19.444Z,2.45
2023-05-12T09:45:50.313Z,2.97
2023-05-12T09:48:19.422Z,2.92
2023-05-12T09:50:51.270Z,1.95
2023-05-12T09:53:23.026Z,2.00
2023-05-12T09:55:52.750Z,1.90
2023-05-12T09:58:23.442Z,2.33
2023-05-12T10:03:31.711Z,2.53
2023-05-12T10:06:07.001Z,2.17
2023-05-12T10:08:43.319Z,2.10
2023-05-12T10:11:12.815Z,2.08
2023-05-12T10:13:42.126Z,1.90
2023-05-12T10:16:18.756Z,2.63
2023-05-12T10:18:48.408Z,1.73
2023-05-12T10:21:24.877Z,2.00
2023-05-12T10:23:57.598Z,2.30
2023-05-12T10:26:27.803Z,2.25
2023-05-12T10:29:03.710Z,2.30
2023-05-12T10:31:46.998Z,1.95
2023-05-12T10:34:24.917Z,2.00
2023-05-12T10:36:57.117Z,2.30
2023-05-12T10:39:35.074Z,2.80
2023-05-12T10:42:08.511Z,2.08
2023-05-12T10:44:38.733Z,2.33
2023-05-12T10:47:15.283Z,2.38
2023-05-12T10:49:46.711Z,2.40
2023-05-12T10:52:21.518Z,1.95
2023-05-12T10:54:50.394Z,2.63
2023-05-12T10:57:22.265Z,2.45
2023-05-12T11:00:13.076Z,1.90
2023-05-12T11:02:52.116Z,1.70
2023-05-12T11:05:24.519Z,1.70
2023-05-12T11:07:55.389Z,2.60
2023-05-12T11:10:24.783Z,2.20
2023-05-12T11:12:58.014Z,1.75
2023-05-12T11:15:29.501Z,6.38
2023-05-12T11:18:03.126Z,2.65
2023-05-12T11:20:32.685Z,5.57
2023-05-12T11:23:03.893Z,2.10
2023-05-12T11:25:37.298Z,2.38
2023-05-12T11:28:12.402Z,1.90
2023-05-12T11:30:52.473Z,1.83
2023-05-12T11:33:25.747Z,1.70
2023-05-12T11:35:58.415Z,1.80
2023-05-12T11:38:29.014Z,1.60
2023-05-12T11:40:58.100Z,1.80
2023-05-12T11:43:29.323Z,1.85
2023-05-12T11:45:59.888Z,1.90
2023-05-12T11:48:35.194Z,1.65
2023-05-12T11:51:05.444Z,2.47
2023-05-12T11:53:41.534Z,1.95
2023-05-12T11:56:19.776Z,1.63
2023-05-12T11:58:56.924Z,2.90
2023-05-12T12:01:26.555Z,1.85
2023-05-12T12:03:56.820Z,1.70
2023-05-12T12:06:26.071Z,1.88
2023-05-12T12:08:58.017Z,2.00
2023-05-12T12:11:28.469Z,2.00
2023-05-12T12:13:58.858Z,2.35
2023-05-12T12:16:31.360Z,2.78
2023-05-12T12:19:01.814Z,2.28
2023-05-12T12:21:35.074Z,2.03
2023-05-12T12:24:09.825Z,2.08
2023-05-12T12:26:39.659Z,2.10
2023-05-12T12:29:09.112Z,1.90
2023-05-12T12:31:42.728Z,1.65
2023-05-12T12:34:16.154Z,1.65
2023-05-12T12:36:50.093Z,1.90
2023-05-12T12:39:21.823Z,1.40
2023-05-12T12:41:51.066Z,1.58
2023-05-12T12:44:20.043Z,1.48
2023-05-12T12:46:49.138Z,1.73
2023-05-12T12:49:19.419Z,2.03
2023-05-12T12:51:48.494Z,1.60
2023-05-12T12:54:18.032Z,1.80
2023-05-12T12:56:49.191Z,1.85
2023-05-12T12:59:18.246Z,1.90
2023-05-12T13:01:48.494Z,1.70
2023-05-12T13:04:22.523Z,1.80
2023-05-12T13:06:54.752Z,1.75
2023-05-12T13:09:24.533Z,1.80
2023-05-12T13:11:58.391Z,2.00
2023-05-12T13:14:27.663Z,1.98
2023-05-12T13:16:57.771Z,2.28
2023-05-12T13:19:30.141Z,1.85
2023-05-12T13:22:02.511Z,1.75
2023-05-12T13:24:34.581Z,1.65
2023-05-12T13:27:09.213Z,1.75
2023-05-12T13:29:38.501Z,1.73
2023-05-12T13:32:09.297Z,1.40
2023-05-12T13:34:39.372Z,1.70
2023-05-12T13:37:08.759Z,1.88
2023-05-12T13:39:42.051Z,1.60
2023-05-12T13:42:17.511Z,1.73
2023-05-12T13:44:58.057Z,1.40
2023-05-12T13:47:31.173Z,2.10
2023-05-12T13:50:00.674Z,2.05
2023-05-12T13:52:34.106Z,1.40
2023-05-12T13:55:09.745Z,1.58
2023-05-12T13:57:40.810Z,1.60
2023-05-12T14:00:11.834Z,1.40
2023-05-12T14:02:50.877Z,1.35
2023-05-12T14:05:26.974Z,1.38
2023-05-12T14:07:57.215Z,1.35
2023-05-12T14:10:30.944Z,1.20
2023-05-12T14:13:02.639Z,1.30
2023-05-12T14:15:44.737Z,1.27
2023-05-12T14:18:18.049Z,1.60
2023-05-12T14:20:48.355Z,1.30
2023-05-12T14:23:20.306Z,1.30
2023-05-12T14:25:49.395Z,1.10
2023-05-12T14:28:22.685Z,1.20
2023-05-12T14:30:54.403Z,1.38
2023-05-12T14:33:25.980Z,2.13
2023-05-12T14:36:06.579Z,1.60
2023-05-12T14:38:38.098Z,1.35
2023-05-12T14:41:08.571Z,1.50
2023-05-12T14:43:39.544Z,1.67
2023-05-12T14:46:09.002Z,1.30
2023-05-12T14:48:38.335Z,1.20
2023-05-12T14:51:08.213Z,1.35
2023-05-12T14:53:37.180Z,2.38
2023-05-12T14:56:07.178Z,1.40
2023-05-12T14:58:36.455Z,1.30
2023-05-12T15:01:10.220Z,1.38
2023-05-12T15:03:39.768Z,1.30
2023-05-12T15:06:11.739Z,1.30
2023-05-12T15:08:43.828Z,1.67
2023-05-12T15:11:13.427Z,1.35
2023-05-12T15:13:43.280Z,1.30
2023-05-12T15:16:14.596Z,1.92
2023-05-12T15:18:44.434Z,1.60
2023-05-12T15:21:15.725Z,1.57
2023-05-12T15:23:45.313Z,1.58
2023-05-12T15:26:32.244Z,1.77
2023-05-12T15:29:03.631Z,1.30
2023-05-12T15:31:34.628Z,2.10
2023-05-12T15:34:04.805Z,1.80
2023-05-12T15:36:33.971Z,1.50
2023-05-12T15:39:05.564Z,1.38
2023-05-12T15:41:35.126Z,1.65
2023-05-12T15:44:04.360Z,1.25
2023-05-12T15:46:37.245Z,1.98
2023-05-12T15:49:08.146Z,1.63
2023-05-12T15:51:41.727Z,1.75
2023-05-12T15:54:12.453Z,1.63
2023-05-12T15:56:42.196Z,2.25
2023-05-12T15:59:12.648Z,2.67
2023-05-12T16:01:44.119Z,2.10
2023-05-12T16:04:14.367Z,1.67
2023-05-12T16:06:44.519Z,7.20
2023-05-12T16:09:14.170Z,6.43
2023-05-12T16:11:44.948Z,1.77
2023-05-12T16:14:15.434Z,1.98
2023-05-12T16:16:48.590Z,1.45
2023-05-12T16:19:18.569Z,1.65
2023-05-12T16:21:47.937Z,1.60
2023-05-12T16:24:17.923Z,1.73
2023-05-12T16:26:48.202Z,2.08
2023-05-12T16:29:18.561Z,1.35
2023-05-12T16:31:51.042Z,1.60
2023-05-12T16:34:20.646Z,1.50
2023-05-12T16:36:50.242Z,1.50
2023-05-12T16:39:19.798Z,1.83
2023-05-12T16:41:49.786Z,1.30
2023-05-12T16:44:19.332Z,2.45
2023-05-12T16:46:53.500Z,1.70
2023-05-12T16:49:23.147Z,3.17
2023-05-12T16:51:52.185Z,2.38
2023-05-12T16:54:21.426Z,1.88
2023-05-12T16:56:50.492Z,2.13
2023-05-12T16:59:19.925Z,2.50
2023-05-12T17:01:55.020Z,2.60
2023-05-12T17:04:25.505Z,2.55
2023-05-12T17:06:59.852Z,2.38
2023-05-12T17:09:30.133Z,1.95
2023-05-12T17:12:00.018Z,2.00
2023-05-12T17:14:30.430Z,1.70
2023-05-12T17:17:01.542Z,1.80
2023-05-12T17:19:30.647Z,1.80
2023-05-12T17:21:59.952Z,1.80
2023-05-12T17:24:29.275Z,1.85
2023-05-12T17:26:58.876Z,1.77
2023-05-12T17:29:28.493Z,1.67
2023-05-12T17:31:57.893Z,2.05
2023-05-12T17:34:31.217Z,2.17
2023-05-12T17:37:00.409Z,2.15
2023-05-12T17:39:29.689Z,2.03
2023-05-12T17:41:59.245Z,2.00
2023-05-12T17:44:32.340Z,2.33
2023-05-12T17:47:02.278Z,2.15
2023-05-12T17:49:36.442Z,2.58
2023-05-12T17:52:06.566Z,2.58
2023-05-12T17:54:42.505Z,2.10
2023-05-12T17:57:12.409Z,2.63
2023-05-12T17:59:48.251Z,2.47
2023-05-12T18:02:18.779Z,4.43
2023-05-12T18:05:01.501Z,2.38
2023-05-12T18:07:34.077Z,2.38
2023-05-12T18:10:04.439Z,1.90
2023-05-12T18:12:37.033Z,2.20
2023-05-12T18:15:15.717Z,2.47
2023-05-12T18:17:50.396Z,2.38
2023-05-12T18:20:21.199Z,2.60
2023-05-12T18:22:51.805Z,4.13
2023-05-12T18:25:21.640Z,6.40
2023-05-12T18:27:51.408Z,6.38
2023-05-12T18:30:21.830Z,3.90
2023-05-12T18:32:52.508Z,3.08
2023-05-12T18:35:24.903Z,2.50
2023-05-12T18:37:55.852Z,2.88
2023-05-12T18:40:25.397Z,3.08
2023-05-12T18:42:54.987Z,3.47
2023-05-12T18:45:24.683Z,3.40
2023-05-12T18:47:54.382Z,3.63
2023-05-12T18:50:28.483Z,3.05
2023-05-12T18:53:00.132Z,3.20
2023-05-12T18:55:32.322Z,3.30
2023-05-12T18:58:05.677Z,3.25
2023-05-12T19:00:41.363Z,2.88
2023-05-12T19:03:14.209Z,3.25
2023-05-12T19:06:23.951Z,2.45
2023-05-12T19:08:55.440Z,2.75
2023-05-12T19:11:28.326Z,3.33
2023-05-12T19:14:02.886Z,2.80
2023-05-12T19:16:36.473Z,3.45
2023-05-12T19:19:07.754Z,2.90
2023-05-12T19:21:40.857Z,27.88
2023-05-12T19:24:14.257Z,13.68
2023-05-12T19:26:47.754Z,11.45
2023-05-12T19:29:37.523Z,3.63
2023-05-12T19:32:09.036Z,3.20
2023-05-12T19:34:42.177Z,3.50
2023-05-12T19:37:13.926Z,2.65
2023-05-12T19:40:19.044Z,2.50
2023-05-12T19:42:44.338Z,2.75
2023-05-12T19:45:13.573Z,3.25
2023-05-12T19:47:48.473Z,3.78
2023-05-12T19:50:18.877Z,3.83
2023-05-12T19:52:51.414Z,15.25
2023-05-12T19:55:24.075Z,3.83
2023-05-12T19:57:59.279Z,3.25
2023-05-12T20:00:30.050Z,2.97
2023-05-12T20:02:59.630Z,3.15
2023-05-12T20:05:28.963Z,3.28
2023-05-12T20:08:08.126Z,3.50
2023-05-12T20:10:39.285Z,3.00
2023-05-12T20:13:12.793Z,3.33
2023-05-12T20:15:44.292Z,3.00
2023-05-12T20:18:15.758Z,3.17
2023-05-12T20:20:45.197Z,3.08
2023-05-12T20:23:18.731Z,3.13
2023-05-12T20:25:48.357Z,3.20
2023-05-12T20:28:24.089Z,3.38
2023-05-12T20:30:54.424Z,3.20
2023-05-12T20:33:23.736Z,3.17
2023-05-12T20:35:55.093Z,2.95
2023-05-12T20:38:27.826Z,2.60
2023-05-12T20:41:03.703Z,3.70
2023-05-12T20:43:33.451Z,2.97
2023-05-12T20:46:07.481Z,3.28
2023-05-12T20:48:49.687Z,3.78
2023-05-12T20:51:22.374Z,3.90
2023-05-12T20:53:54.830Z,4.28
2023-05-12T20:56:24.116Z,3.43
2023-05-12T20:58:57.756Z,3.20
2023-05-12T21:01:31.280Z,3.25
2023-05-12T21:04:01.226Z,3.10
2023-05-12T21:06:33.482Z,3.35
2023-05-12T21:09:06.081Z,2.83
2023-05-12T21:11:35.136Z,3.60
2023-05-12T21:14:05.573Z,2.80
2023-05-12T21:16:34.614Z,2.90
2023-05-12T21:19:03.933Z,2.80
2023-05-12T21:21:33.063Z,3.30
2023-05-12T21:24:04.025Z,2.85
2023-05-12T21:26:33.534Z,2.90
2023-05-12T21:29:03.666Z,2.92
2023-05-12T21:31:33.899Z,3.47
2023-05-12T21:34:03.448Z,2.80
2023-05-12T21:36:33.793Z,6.80
2023-05-12T21:39:06.719Z,9.80
2023-05-12T21:41:39.012Z,6.43
2023-05-12T21:44:11.451Z,4.32
2023-05-12T21:46:40.588Z,3.38
2023-05-12T21:49:10.107Z,3.33
2023-05-12T21:51:39.623Z,3.40
2023-05-12T21:54:09.976Z,3.38
2023-05-12T21:56:38.897Z,2.92
2023-05-12T21:59:08.026Z,3.33
2023-05-12T22:01:37.312Z,3.58
2023-05-12T22:04:07.338Z,3.13
2023-05-12T22:06:36.443Z,3.22
2023-05-12T22:09:05.883Z,3.15
2023-05-12T22:11:38.677Z,3.20
2023-05-12T22:14:07.709Z,3.17
2023-05-12T22:16:41.900Z,3.15
2023-05-12T22:19:11.640Z,3.35
2023-05-12T22:21:40.994Z,3.85
2023-05-12T22:24:11.259Z,3.85
2023-05-12T22:26:41.708Z,3.28
2023-05-12T22:29:10.647Z,3.53
2023-05-12T22:31:42.588Z,3.70
2023-05-12T22:34:11.778Z,5.40
2023-05-12T22:36:40.774Z,6.35
2023-05-12T22:39:10.065Z,3.90
2023-05-12T22:41:39.111Z,3.58
2023-05-12T22:44:09.889Z,3.63
2023-05-12T22:46:38.913Z,3.90
2023-05-12T22:49:07.839Z,3.88
2023-05-12T22:51:36.890Z,3.55
2023-05-12T22:54:06.176Z,3.90
2023-05-12T22:56:35.857Z,3.80
2023-05-12T22:59:04.929Z,3.88
2023-05-12T23:01:35.118Z,4.15
2023-05-12T23:04:04.146Z,3.63
2023-05-12T23:06:33.552Z,4.10
2023-05-12T23:09:02.561Z,3.90
2023-05-12T23:11:31.864Z,3.63
2023-05-12T23:14:00.924Z,4.90
2023-05-12T23:16:32.126Z,3.55
2023-05-12T23:19:02.578Z,3.83
2023-05-12T23:21:31.805Z,4.05
2023-05-12T23:24:01.080Z,3.90
2023-05-12T23:26:30.188Z,4.25
2023-05-12T23:29:00.716Z,3.95
2023-05-12T23:31:29.691Z,4.05
2023-05-12T23:33:58.610Z,3.65
2023-05-12T23:36:29.052Z,4.38
2023-05-12T23:38:57.920Z,3.53
2023-05-12T23:41:26.957Z,4.75
2023-05-12T23:43:57.723Z,3.95
2023-05-12T23:46:27.146Z,3.97
2023-05-12T23:48:58.053Z,3.65
2023-05-12T23:51:29.945Z,4.45
2023-05-12T23:53:58.922Z,4.80
2023-05-12T23:56:27.954Z,4.40
2023-05-12T23:58:56.942Z,4.20
